createdAt,value
2019-06-25T00:01:06.995Z,22.99
2019-06-25T00:03:40.553Z,22.88
2019-06-25T00:06:13.011Z,22.83
2019-06-25T00:08:47.050Z,22.78
2019-06-25T00:11:19.532Z,22.80
2019-06-25T00:13:50.728Z,22.83
2019-06-25T00:16:23.788Z,22.79
2019-06-25T00:18:56.710Z,22.69
2019-06-25T00:21:29.704Z,22.57
2019-06-25T00:24:02.751Z,22.56
2019-06-25T00:26:36.173Z,22.59
2019-06-25T00:29:08.236Z,22.69
2019-06-25T00:31:40.782Z,22.61
2019-06-25T00:34:13.735Z,22.61
2019-06-25T00:36:46.902Z,22.67
2019-06-25T00:39:19.689Z,22.64
2019-06-25T00:41:54.591Z,22.60
2019-06-25T00:44:27.679Z,22.51
2019-06-25T00:46:59.891Z,22.41
2019-06-25T00:49:32.724Z,22.29
2019-06-25T00:52:06.548Z,22.14
2019-06-25T00:54:40.082Z,22.16
2019-06-25T00:57:12.746Z,22.05
2019-06-25T00:59:48.525Z,22.04
2019-06-25T01:02:32.389Z,22.01
2019-06-25T01:05:05.247Z,22.02
2019-06-25T01:07:39.528Z,22.28
2019-06-25T01:10:10.983Z,22.63
2019-06-25T01:12:50.515Z,22.66
2019-06-25T01:15:34.254Z,22.65
2019-06-25T01:18:07.894Z,22.60
2019-06-25T01:20:41.550Z,22.74
2019-06-25T01:23:13.960Z,22.60
2019-06-25T01:25:46.977Z,22.33
2019-06-25T01:28:19.955Z,22.52
2019-06-25T01:30:52.922Z,22.72
2019-06-25T01:33:27.006Z,22.58
2019-06-25T01:36:00.747Z,22.97
2019-06-25T01:38:31.924Z,23.07
2019-06-25T01:41:22.066Z,22.78
2019-06-25T01:43:56.014Z,21.62
2019-06-25T01:46:31.706Z,22.31
2019-06-25T01:49:05.033Z,22.12
2019-06-25T01:51:38.977Z,21.98
2019-06-25T01:54:12.234Z,21.85
2019-06-25T01:56:44.036Z,21.79
2019-06-25T01:59:15.261Z,21.83
2019-06-25T02:01:46.910Z,21.89
2019-06-25T02:04:18.843Z,22.01
2019-06-25T02:06:50.126Z,22.34
2019-06-25T02:09:23.276Z,22.78
2019-06-25T02:11:58.733Z,22.41
2019-06-25T02:14:30.307Z,21.92
2019-06-25T02:17:02.356Z,22.27
2019-06-25T02:19:35.948Z,22.43
2019-06-25T02:22:08.497Z,21.27
2019-06-25T02:24:41.334Z,21.01
2019-06-25T02:27:14.331Z,21.19
2019-06-25T02:29:46.382Z,21.02
2019-06-25T02:32:20.372Z,21.20
2019-06-25T02:34:53.294Z,21.24
2019-06-25T02:37:29.368Z,21.15
2019-06-25T02:40:03.422Z,21.00
2019-06-25T02:42:36.484Z,21.28
2019-06-25T02:45:09.957Z,21.83
2019-06-25T02:47:42.523Z,21.46
2019-06-25T02:50:15.932Z,22.09
2019-06-25T02:52:47.854Z,22.92
2019-06-25T02:55:40.096Z,23.25
2019-06-25T02:58:11.334Z,23.45
2019-06-25T03:00:45.343Z,23.54
2019-06-25T03:03:17.381Z,23.54
2019-06-25T03:05:50.650Z,23.42
2019-06-25T03:08:23.777Z,23.23
2019-06-25T03:10:59.336Z,23.01
2019-06-25T03:13:31.493Z,22.88
2019-06-25T03:16:07.159Z,22.91
2019-06-25T03:18:39.659Z,23.26
2019-06-25T03:21:13.808Z,23.68
2019-06-25T03:23:45.562Z,23.94
2019-06-25T03:26:18.552Z,23.68
2019-06-25T03:28:50.601Z,22.93
2019-06-25T03:32:01.413Z,22.54
2019-06-25T03:34:05.829Z,22.23
2019-06-25T03:36:38.776Z,21.71
2019-06-25T03:39:11.764Z,21.66
2019-06-25T03:41:43.844Z,21.68
2019-06-25T03:44:19.306Z,21.95
2019-06-25T03:46:50.745Z,21.60
2019-06-25T03:49:23.848Z,21.94
2019-06-25T03:51:56.776Z,22.06
2019-06-25T03:54:29.049Z,21.73
2019-06-25T03:57:10.180Z,21.38
2019-06-25T03:59:42.743Z,20.90
2019-06-25T04:02:17.677Z,20.54
2019-06-25T04:04:47.738Z,20.51
2019-06-25T04:07:20.779Z,20.74
2019-06-25T04:09:55.658Z,21.19
2019-06-25T04:12:29.851Z,21.44
2019-06-25T04:15:02.851Z,22.30
2019-06-25T04:17:36.109Z,22.34
2019-06-25T04:20:10.657Z,22.60
2019-06-25T04:22:42.007Z,22.91
2019-06-25T04:25:34.224Z,23.29
2019-06-25T04:28:05.844Z,23.47
2019-06-25T04:30:37.089Z,23.63
2019-06-25T04:33:08.942Z,23.68
2019-06-25T04:35:43.673Z,23.70
2019-06-25T04:38:14.930Z,23.76
2019-06-25T04:40:47.120Z,23.68
2019-06-25T04:43:18.596Z,23.82
2019-06-25T04:45:50.946Z,23.97
2019-06-25T04:48:26.936Z,24.23
2019-06-25T04:50:56.943Z,24.21
2019-06-25T04:53:30.195Z,24.17
2019-06-25T04:56:03.390Z,24.55
2019-06-25T04:58:34.963Z,24.57
2019-06-25T05:01:10.713Z,24.51
2019-06-25T05:03:41.928Z,24.56
2019-06-25T05:06:15.198Z,25.12
2019-06-25T05:08:47.276Z,25.32
2019-06-25T05:11:19.976Z,24.85
2019-06-25T05:13:51.187Z,25.29
2019-06-25T05:16:26.227Z,25.12
2019-06-25T05:18:59.162Z,25.58
2019-06-25T05:21:32.583Z,25.65
2019-06-25T05:24:07.442Z,25.31
2019-06-25T05:26:41.534Z,25.54
2019-06-25T05:29:12.965Z,25.83
2019-06-25T05:31:45.334Z,25.63
2019-06-25T05:34:19.077Z,25.51
2019-06-25T05:36:58.540Z,25.28
2019-06-25T05:39:31.362Z,24.89
2019-06-25T05:42:07.007Z,25.05
2019-06-25T05:44:41.176Z,25.11
2019-06-25T05:47:14.322Z,25.25
2019-06-25T05:49:47.166Z,25.25
2019-06-25T05:52:20.314Z,25.11
2019-06-25T05:54:53.765Z,25.15
2019-06-25T05:57:28.888Z,25.13
2019-06-25T06:00:01.414Z,25.08
2019-06-25T06:02:34.606Z,24.91
2019-06-25T06:05:09.881Z,24.75
2019-06-25T06:07:41.350Z,24.97
2019-06-25T06:10:38.169Z,25.05
2019-06-25T06:13:11.305Z,25.30
2019-06-25T06:15:45.611Z,24.81
2019-06-25T06:18:36.999Z,24.45
2019-06-25T06:21:08.617Z,24.99
2019-06-25T06:23:41.373Z,25.04
2019-06-25T06:26:18.536Z,25.09
2019-06-25T06:28:50.828Z,24.23
2019-06-25T06:31:23.508Z,25.07
2019-06-25T06:33:56.645Z,25.07
2019-06-25T06:36:29.406Z,24.35
2019-06-25T06:39:02.695Z,24.90
2019-06-25T06:41:36.710Z,24.81
2019-06-25T06:44:10.222Z,25.37
2019-06-25T06:46:43.747Z,25.16
2019-06-25T06:49:16.615Z,25.11
2019-06-25T06:51:47.893Z,24.78
2019-06-25T06:54:20.854Z,24.80
2019-06-25T06:56:53.833Z,24.85
2019-06-25T06:59:26.839Z,25.04
2019-06-25T07:02:00.043Z,25.31
2019-06-25T07:04:31.625Z,25.43
2019-06-25T07:07:06.549Z,25.48
2019-06-25T07:09:38.171Z,25.35
2019-06-25T07:12:10.940Z,25.52
2019-06-25T07:14:43.200Z,25.80
2019-06-25T07:17:14.970Z,26.24
2019-06-25T07:19:46.298Z,25.25
2019-06-25T07:22:19.728Z,25.57
2019-06-25T07:24:54.549Z,25.55
2019-06-25T07:27:30.049Z,25.65
2019-06-25T07:30:03.021Z,25.75
2019-06-25T07:32:38.995Z,25.91
2019-06-25T07:35:08.940Z,25.99
2019-06-25T07:37:42.089Z,25.97
2019-06-25T07:40:50.833Z,25.79
2019-06-25T07:43:22.136Z,25.78
2019-06-25T07:46:01.287Z,25.69
2019-06-25T07:48:45.492Z,26.46
2019-06-25T07:51:20.718Z,27.12
2019-06-25T07:53:54.001Z,27.55
2019-06-25T07:56:36.579Z,27.82
2019-06-25T07:58:59.946Z,27.88
2019-06-25T08:01:34.815Z,27.93
2019-06-25T08:04:06.039Z,27.05
2019-06-25T08:06:40.008Z,26.93
2019-06-25T08:09:12.973Z,27.07
2019-06-25T08:11:45.165Z,26.96
2019-06-25T08:14:19.738Z,27.21
2019-06-25T08:16:51.135Z,27.71
2019-06-25T08:19:24.173Z,28.13
2019-06-25T08:21:57.120Z,28.23
2019-06-25T08:24:30.222Z,28.51
2019-06-25T08:27:03.693Z,28.42
2019-06-25T08:29:36.662Z,28.00
2019-06-25T08:32:09.039Z,28.48
2019-06-25T08:34:42.543Z,28.96
2019-06-25T08:37:15.037Z,28.30
2019-06-25T08:39:47.580Z,28.89
2019-06-25T08:42:22.385Z,29.56
2019-06-25T08:44:54.300Z,29.52
2019-06-25T08:47:26.074Z,29.84
2019-06-25T08:50:00.035Z,29.34
2019-06-25T08:52:31.706Z,29.43
2019-06-25T08:55:03.345Z,29.73
2019-06-25T08:57:48.917Z,29.78
2019-06-25T09:00:34.841Z,29.99
2019-06-25T09:03:06.426Z,29.84
2019-06-25T09:05:40.333Z,30.00
2019-06-25T09:08:12.254Z,29.95
2019-06-25T09:10:49.875Z,29.99
2019-06-25T09:13:30.564Z,29.69
2019-06-25T09:16:03.348Z,29.83
2019-06-25T09:18:36.975Z,29.74
2019-06-25T09:21:10.231Z,29.58
2019-06-25T09:23:43.227Z,30.13
2019-06-25T09:26:15.631Z,30.45
2019-06-25T09:28:47.515Z,30.43
2019-06-25T09:31:22.330Z,30.61
2019-06-25T09:33:54.596Z,30.54
2019-06-25T09:36:28.169Z,30.62
2019-06-25T09:39:00.665Z,30.20
2019-06-25T09:41:31.963Z,30.22
2019-06-25T09:44:02.805Z,30.19
2019-06-25T09:46:37.502Z,30.44
2019-06-25T09:49:12.321Z,30.46
2019-06-25T09:51:45.822Z,30.24
2019-06-25T09:54:18.459Z,30.36
2019-06-25T09:56:50.538Z,30.58
2019-06-25T09:59:25.419Z,30.80
2019-06-25T10:01:58.478Z,30.68
2019-06-25T10:04:29.725Z,30.90
2019-06-25T10:07:03.920Z,31.06
2019-06-25T10:09:36.729Z,31.19
2019-06-25T10:12:10.448Z,31.16
2019-06-25T10:14:43.308Z,30.98
2019-06-25T10:17:15.471Z,30.86
2019-06-25T10:19:47.886Z,31.00
2019-06-25T10:22:20.716Z,30.66
2019-06-25T10:24:54.757Z,30.66
2019-06-25T10:27:26.692Z,30.87
2019-06-25T10:30:01.590Z,31.09
2019-06-25T10:32:35.751Z,31.43
2019-06-25T10:35:09.022Z,31.77
2019-06-25T10:37:41.720Z,31.77
2019-06-25T10:40:52.025Z,31.23
2019-06-25T10:43:25.466Z,31.68
2019-06-25T10:45:56.937Z,31.67
2019-06-25T10:48:29.899Z,31.79
2019-06-25T10:51:06.736Z,31.68
2019-06-25T10:53:41.488Z,31.70
2019-06-25T10:56:15.768Z,31.77
2019-06-25T10:58:47.835Z,31.61
2019-06-25T11:01:21.014Z,31.71
2019-06-25T11:03:55.047Z,32.00
2019-06-25T11:06:28.077Z,31.98
2019-06-25T11:09:00.735Z,31.79
2019-06-25T11:11:32.924Z,31.70
2019-06-25T11:14:08.588Z,32.04
2019-06-25T11:16:38.910Z,31.91
2019-06-25T11:19:10.976Z,32.02
2019-06-25T11:21:43.829Z,31.20
2019-06-25T11:24:15.146Z,31.80
2019-06-25T11:26:47.626Z,31.67
2019-06-25T11:29:21.073Z,31.87
2019-06-25T11:31:54.849Z,32.04
2019-06-25T11:34:29.350Z,32.41
2019-06-25T11:37:03.152Z,32.68
2019-06-25T11:39:36.102Z,32.12
2019-06-25T11:42:08.925Z,32.48
2019-06-25T11:44:42.075Z,32.85
2019-06-25T11:47:17.895Z,32.79
2019-06-25T11:49:51.183Z,32.69
2019-06-25T11:52:26.896Z,32.88
2019-06-25T11:55:01.259Z,32.78
2019-06-25T11:57:34.665Z,32.63
2019-06-25T12:00:07.772Z,32.62
2019-06-25T12:02:39.067Z,32.63
2019-06-25T12:05:16.232Z,32.74
2019-06-25T12:08:02.068Z,32.66
2019-06-25T12:10:40.964Z,32.81
2019-06-25T12:13:16.112Z,32.54
2019-06-25T12:15:48.775Z,32.66
2019-06-25T12:18:20.247Z,32.67
2019-06-25T12:20:55.941Z,32.76
2019-06-25T12:23:27.320Z,32.97
2019-06-25T12:26:00.292Z,33.35
2019-06-25T12:28:33.312Z,33.43
2019-06-25T12:31:07.350Z,33.10
2019-06-25T12:33:39.270Z,32.78
2019-06-25T12:36:18.026Z,32.89
2019-06-25T12:38:51.372Z,32.85
2019-06-25T12:41:24.396Z,32.80
2019-06-25T12:43:57.348Z,32.86
2019-06-25T12:46:30.805Z,32.87
2019-06-25T12:49:02.705Z,32.68
2019-06-25T12:51:36.636Z,33.10
2019-06-25T12:54:09.692Z,33.07
2019-06-25T12:56:42.675Z,33.11
2019-06-25T12:59:17.935Z,32.74
2019-06-25T13:01:51.644Z,32.98
2019-06-25T13:04:27.081Z,32.90
2019-06-25T13:06:58.293Z,32.85
2019-06-25T13:09:29.528Z,32.88
2019-06-25T13:12:01.023Z,32.69
2019-06-25T13:14:33.904Z,33.05
2019-06-25T13:17:06.521Z,33.24
2019-06-25T13:19:39.370Z,32.83
2019-06-25T13:22:12.169Z,32.97
2019-06-25T13:24:44.669Z,33.00
2019-06-25T13:27:15.876Z,33.22
2019-06-25T13:29:48.667Z,33.43
2019-06-25T13:32:19.887Z,33.39
2019-06-25T13:34:52.970Z,33.28
2019-06-25T13:37:40.988Z,32.91
2019-06-25T13:39:58.541Z,32.61
2019-06-25T13:42:30.865Z,32.63
2019-06-25T13:45:04.161Z,33.00
2019-06-25T13:47:37.606Z,33.01
2019-06-25T13:50:10.609Z,33.00
2019-06-25T13:52:48.555Z,32.92
2019-06-25T13:55:38.073Z,32.98
2019-06-25T13:58:09.308Z,32.85
2019-06-25T14:00:41.190Z,32.87
2019-06-25T14:03:12.883Z,32.83
2019-06-25T14:05:45.932Z,32.91
2019-06-25T14:08:18.873Z,32.57
2019-06-25T14:11:06.831Z,32.74
2019-06-25T14:13:39.794Z,32.82
2019-06-25T14:16:14.537Z,32.74
2019-06-25T14:18:45.862Z,32.53
2019-06-25T14:21:18.854Z,32.57
2019-06-25T14:23:52.937Z,32.78
2019-06-25T14:26:24.828Z,32.37
2019-06-25T14:28:58.622Z,32.11
2019-06-25T14:31:31.895Z,32.77
2019-06-25T14:34:05.696Z,32.89
2019-06-25T14:36:43.672Z,32.77
2019-06-25T14:39:15.927Z,32.62
2019-06-25T14:41:48.176Z,32.50
2019-06-25T14:44:23.234Z,32.47
2019-06-25T14:46:55.941Z,32.39
2019-06-25T14:49:30.985Z,32.53
2019-06-25T14:52:03.957Z,32.72
2019-06-25T14:54:38.156Z,32.23
2019-06-25T14:57:10.182Z,32.37
2019-06-25T14:59:43.061Z,32.51
2019-06-25T15:02:15.993Z,32.48
2019-06-25T15:04:49.426Z,32.36
2019-06-25T15:07:23.387Z,32.70
2019-06-25T15:09:58.864Z,32.43
2019-06-25T15:12:33.112Z,32.25
2019-06-25T15:15:07.529Z,32.36
2019-06-25T15:17:40.273Z,32.30
2019-06-25T15:20:13.563Z,32.17
2019-06-25T15:22:46.426Z,31.94
2019-06-25T15:25:28.649Z,32.16
2019-06-25T15:28:00.218Z,32.15
2019-06-25T15:30:35.219Z,32.24
2019-06-25T15:33:08.283Z,32.29
2019-06-25T15:35:43.827Z,32.27
2019-06-25T15:38:15.230Z,31.52
2019-06-25T15:40:48.709Z,31.56
2019-06-25T15:43:21.228Z,31.98
2019-06-25T15:45:55.386Z,31.82
2019-06-25T15:48:28.318Z,32.00
2019-06-25T15:51:08.273Z,31.98
2019-06-25T15:53:58.498Z,31.74
2019-06-25T15:56:30.760Z,31.85
2019-06-25T15:59:08.462Z,31.79
2019-06-25T16:01:42.510Z,31.85
2019-06-25T16:04:17.091Z,31.89
2019-06-25T16:06:48.649Z,32.10
2019-06-25T16:09:21.442Z,32.25
2019-06-25T16:11:54.432Z,31.99
2019-06-25T16:14:27.445Z,31.97
2019-06-25T16:17:02.371Z,32.08
2019-06-25T16:19:33.870Z,31.97
2019-06-25T16:22:06.441Z,31.91
2019-06-25T16:24:39.858Z,31.82
2019-06-25T16:27:12.732Z,31.98
2019-06-25T16:29:45.524Z,32.17
2019-06-25T16:32:18.684Z,32.07
2019-06-25T16:34:51.679Z,31.88
2019-06-25T16:37:31.901Z,31.83
2019-06-25T16:40:04.974Z,31.93
2019-06-25T16:42:42.784Z,31.85
2019-06-25T16:45:35.787Z,31.92
2019-06-25T16:48:14.289Z,31.87
2019-06-25T16:50:55.614Z,31.87
2019-06-25T16:53:27.756Z,31.93
2019-06-25T16:56:00.733Z,32.00
2019-06-25T16:58:35.707Z,31.73
2019-06-25T17:01:09.971Z,31.73
2019-06-25T17:03:44.572Z,31.82
2019-06-25T17:06:20.257Z,31.66
2019-06-25T17:08:52.821Z,31.91
2019-06-25T17:11:24.774Z,32.27
2019-06-25T17:13:57.898Z,32.41
2019-06-25T17:16:30.794Z,32.20
2019-06-25T17:19:03.933Z,31.94
2019-06-25T17:21:37.368Z,32.26
2019-06-25T17:24:09.768Z,32.10
2019-06-25T17:26:44.650Z,32.10
2019-06-25T17:29:17.253Z,31.81
2019-06-25T17:31:48.898Z,31.93
2019-06-25T17:34:21.974Z,31.95
2019-06-25T17:36:55.014Z,31.96
2019-06-25T17:39:27.937Z,32.15
2019-06-25T17:42:00.955Z,32.01
2019-06-25T17:44:33.943Z,32.01
2019-06-25T17:47:06.934Z,32.00
2019-06-25T17:49:41.032Z,31.96
2019-06-25T17:52:12.936Z,31.92
2019-06-25T17:54:45.988Z,31.69
2019-06-25T17:57:21.014Z,31.81
2019-06-25T17:59:56.161Z,31.64
2019-06-25T18:02:28.274Z,31.53
2019-06-25T18:05:00.943Z,31.59
2019-06-25T18:07:33.999Z,31.60
2019-06-25T18:10:09.226Z,31.55
2019-06-25T18:12:54.136Z,31.54
2019-06-25T18:15:37.399Z,31.47
2019-06-25T18:18:10.031Z,31.29
2019-06-25T18:20:43.146Z,31.12
2019-06-25T18:23:15.143Z,31.04
2019-06-25T18:25:48.659Z,30.90
2019-06-25T18:28:22.079Z,30.83
2019-06-25T18:30:55.050Z,30.78
2019-06-25T18:33:30.123Z,30.74
2019-06-25T18:36:03.330Z,30.61
2019-06-25T18:39:10.749Z,30.48
2019-06-25T18:41:44.247Z,30.28
2019-06-25T18:44:16.248Z,30.24
2019-06-25T18:46:48.552Z,30.03
2019-06-25T18:49:20.470Z,29.94
2019-06-25T18:52:27.772Z,29.89
2019-06-25T18:55:04.183Z,29.79
2019-06-25T18:57:35.926Z,29.79
2019-06-25T19:00:08.052Z,29.73
2019-06-25T19:03:04.252Z,29.69
2019-06-25T19:05:36.646Z,29.52
2019-06-25T19:08:11.646Z,29.54
2019-06-25T19:10:45.393Z,29.43
2019-06-25T19:13:19.414Z,29.38
2019-06-25T19:15:58.674Z,29.33
2019-06-25T19:18:30.255Z,29.28
2019-06-25T19:21:04.448Z,29.27
2019-06-25T19:24:12.168Z,29.21
2019-06-25T19:27:01.209Z,29.04
2019-06-25T19:29:35.299Z,28.87
2019-06-25T19:32:09.261Z,28.96
2019-06-25T19:34:40.491Z,28.97
2019-06-25T19:37:13.801Z,28.97
2019-06-25T19:40:55.006Z,28.87
2019-06-25T19:43:16.318Z,28.81
2019-06-25T19:45:49.445Z,28.79
2019-06-25T19:48:24.538Z,28.88
2019-06-25T19:51:00.270Z,28.89
2019-06-25T19:53:35.021Z,28.86
2019-06-25T19:56:07.554Z,28.78
2019-06-25T19:58:42.408Z,28.72
2019-06-25T20:01:15.650Z,28.84
2019-06-25T20:03:47.777Z,28.94
2019-06-25T20:06:21.813Z,29.18
2019-06-25T20:08:54.647Z,29.20
2019-06-25T20:11:26.699Z,29.21
2019-06-25T20:14:00.617Z,28.78
2019-06-25T20:16:33.615Z,28.61
2019-06-25T20:19:08.521Z,28.47
2019-06-25T20:21:41.735Z,28.49
2019-06-25T20:24:14.256Z,28.11
2019-06-25T20:26:45.850Z,28.07
2019-06-25T20:29:19.649Z,27.99
2019-06-25T20:31:52.927Z,28.02
2019-06-25T20:34:25.892Z,27.82
2019-06-25T20:36:57.864Z,27.64
2019-06-25T20:39:30.800Z,27.33
2019-06-25T20:42:03.795Z,27.47
2019-06-25T20:44:35.863Z,27.45
2019-06-25T20:47:09.809Z,27.41
2019-06-25T20:49:43.170Z,27.46
2019-06-25T20:52:15.851Z,27.46
2019-06-25T20:54:48.736Z,27.37
2019-06-25T20:57:22.102Z,27.41
2019-06-25T20:59:56.091Z,27.00
2019-06-25T21:02:30.281Z,27.12
2019-06-25T21:05:04.414Z,27.18
2019-06-25T21:07:37.807Z,27.00
2019-06-25T21:10:15.065Z,26.79
2019-06-25T21:12:59.430Z,26.91
2019-06-25T21:15:38.379Z,27.05
2019-06-25T21:18:09.850Z,26.92
2019-06-25T21:20:54.064Z,27.03
2019-06-25T21:23:29.613Z,26.79
2019-06-25T21:26:02.306Z,26.64
2019-06-25T21:28:35.026Z,26.99
2019-06-25T21:31:08.036Z,27.16
2019-06-25T21:33:41.033Z,27.02
2019-06-25T21:36:13.986Z,27.16
2019-06-25T21:38:47.203Z,27.13
2019-06-25T21:41:21.331Z,27.24
2019-06-25T21:43:55.094Z,27.32
2019-06-25T21:46:28.143Z,27.34
2019-06-25T21:49:01.091Z,26.99
2019-06-25T21:51:34.531Z,27.28
2019-06-25T21:54:07.022Z,27.17
2019-06-25T21:56:40.014Z,27.00
2019-06-25T21:59:14.040Z,27.19
2019-06-25T22:01:48.152Z,26.89
2019-06-25T22:04:19.981Z,27.17
2019-06-25T22:06:53.292Z,27.29
2019-06-25T22:09:25.262Z,26.80
2019-06-25T22:11:58.723Z,26.92
2019-06-25T22:14:30.528Z,26.77
2019-06-25T22:17:04.450Z,26.68
2019-06-25T22:19:38.152Z,26.66
2019-06-25T22:22:19.872Z,26.66
2019-06-25T22:24:45.158Z,26.48
2019-06-25T22:27:17.265Z,26.58
2019-06-25T22:29:48.927Z,26.59
2019-06-25T22:32:22.470Z,26.50
2019-06-25T22:34:55.246Z,26.58
2019-06-25T22:37:30.992Z,26.81
2019-06-25T22:40:05.423Z,27.05
2019-06-25T22:42:38.007Z,26.83
2019-06-25T22:45:12.558Z,26.72
2019-06-25T22:47:57.142Z,26.64
2019-06-25T22:50:46.806Z,26.58
2019-06-25T22:53:16.413Z,26.34
2019-06-25T22:55:51.683Z,26.20
2019-06-25T22:58:23.086Z,26.19
2019-06-25T23:00:55.489Z,26.21
2019-06-25T23:03:28.434Z,26.37
2019-06-25T23:06:01.647Z,26.41
2019-06-25T23:08:35.640Z,26.30
2019-06-25T23:11:09.562Z,25.95
2019-06-25T23:13:42.560Z,25.90
2019-06-25T23:16:18.286Z,26.09
2019-06-25T23:18:50.842Z,25.97
2019-06-25T23:21:24.373Z,25.75
2019-06-25T23:23:55.701Z,25.81
2019-06-25T23:26:29.612Z,25.87
2019-06-25T23:29:01.706Z,26.05
2019-06-25T23:31:35.368Z,26.31
2019-06-25T23:34:09.672Z,25.80
2019-06-25T23:36:45.348Z,25.81
2019-06-25T23:39:17.771Z,26.09
2019-06-25T23:41:49.127Z,25.60
2019-06-25T23:44:21.911Z,25.79
2019-06-25T23:46:57.502Z,25.77
2019-06-25T23:49:28.719Z,26.01
2019-06-25T23:52:01.727Z,25.77
2019-06-25T23:54:33.755Z,25.91
2019-06-25T23:57:05.232Z,25.95
2019-06-25T23:59:38.061Z,26.16
